createdAt,value
2022-12-17T00:00:28.101Z,50.69
2022-12-17T00:03:13.489Z,50.84
2022-12-17T00:05:56.331Z,50.98
2022-12-17T00:08:39.028Z,51.35
2022-12-17T00:11:21.816Z,52.85
2022-12-17T00:14:10.138Z,53.49
2022-12-17T00:16:55.724Z,54.02
2022-12-17T00:19:39.508Z,54.97
2022-12-17T00:22:22.242Z,55.20
2022-12-17T00:25:04.980Z,55.78
2022-12-17T00:27:47.824Z,56.16
2022-12-17T00:30:31.769Z,55.93
2022-12-17T00:33:17.133Z,55.83
2022-12-17T00:35:59.931Z,55.77
2022-12-17T00:38:42.673Z,56.09
2022-12-17T00:41:25.500Z,56.39
2022-12-17T00:44:08.604Z,56.76
2022-12-17T00:46:51.895Z,56.80
2022-12-17T00:49:37.487Z,57.22
2022-12-17T00:52:20.325Z,57.51
2022-12-17T00:55:03.142Z,58.17
2022-12-17T00:57:46.063Z,60.14
2022-12-17T01:00:46.587Z,59.88
2022-12-17T01:03:29.431Z,59.23
2022-12-17T01:06:16.894Z,61.17
2022-12-17T01:08:59.804Z,63.90
2022-12-17T01:11:42.605Z,66.04
2022-12-17T01:14:25.449Z,67.22
2022-12-17T01:17:10.910Z,68.97
2022-12-17T01:19:53.792Z,67.73
2022-12-17T01:22:41.816Z,66.97
2022-12-17T01:25:24.677Z,66.77
2022-12-17T01:28:07.607Z,66.48
2022-12-17T01:30:52.549Z,65.91
2022-12-17T01:33:35.536Z,64.40
2022-12-17T01:36:18.862Z,64.61
2022-12-17T01:39:04.214Z,64.21
2022-12-17T01:41:47.749Z,63.26
2022-12-17T01:45:05.453Z,62.00
2022-12-17T01:47:53.209Z,61.23
2022-12-17T01:50:41.793Z,60.39
2022-12-17T01:53:26.806Z,59.86
2022-12-17T01:56:12.616Z,58.64
2022-12-17T01:58:56.595Z,59.01
2022-12-17T02:01:39.707Z,58.24
2022-12-17T02:04:23.974Z,57.50
2022-12-17T02:07:25.634Z,57.80
2022-12-17T02:10:18.097Z,57.39
2022-12-17T02:13:07.492Z,56.44
2022-12-17T02:16:17.920Z,55.87
2022-12-17T02:19:20.654Z,56.10
2022-12-17T02:22:10.910Z,55.68
2022-12-17T02:25:03.472Z,55.15
2022-12-17T02:27:51.529Z,54.80
2022-12-17T02:30:35.265Z,55.12
2022-12-17T02:33:31.396Z,52.44
2022-12-17T02:36:19.993Z,53.81
2022-12-17T02:39:02.801Z,53.22
2022-12-17T02:41:52.883Z,53.09
2022-12-17T02:44:39.502Z,51.35
2022-12-17T02:47:26.132Z,52.10
2022-12-17T02:50:09.936Z,51.69
2022-12-17T02:52:57.043Z,51.47
2022-12-17T02:55:54.839Z,51.12
2022-12-17T02:58:37.870Z,50.12
2022-12-17T03:01:23.757Z,50.11
2022-12-17T03:04:06.935Z,50.81
2022-12-17T03:06:49.933Z,51.29
2022-12-17T03:09:32.690Z,51.89
2022-12-17T03:12:15.665Z,52.21
2022-12-17T03:14:58.453Z,53.02
2022-12-17T03:17:44.929Z,54.27
2022-12-17T03:20:27.795Z,54.83
2022-12-17T03:23:17.662Z,56.26
2022-12-17T03:26:00.429Z,56.78
2022-12-17T03:28:43.189Z,58.00
2022-12-17T03:31:26.299Z,59.05
2022-12-17T03:34:11.823Z,59.78
2022-12-17T03:36:54.549Z,61.22
2022-12-17T03:39:37.308Z,61.71
2022-12-17T03:42:20.174Z,62.67
2022-12-17T03:45:03.051Z,65.23
2022-12-17T03:47:47.265Z,67.07
2022-12-17T03:50:32.859Z,65.49
2022-12-17T03:53:15.852Z,64.87
2022-12-17T03:55:59.016Z,63.54
2022-12-17T03:58:41.691Z,62.08
2022-12-17T04:01:24.535Z,59.83
2022-12-17T04:04:07.323Z,58.18
2022-12-17T04:06:52.663Z,58.24
2022-12-17T04:09:35.506Z,57.26
2022-12-17T04:12:18.241Z,55.58
2022-12-17T04:15:01.199Z,55.56
2022-12-17T04:17:43.934Z,54.29
2022-12-17T04:20:29.629Z,53.79
2022-12-17T04:23:14.613Z,52.27
2022-12-17T04:25:57.413Z,53.18
2022-12-17T04:28:40.113Z,52.82
2022-12-17T04:31:23.001Z,52.12
2022-12-17T04:34:05.797Z,52.59
2022-12-17T04:36:48.549Z,52.25
2022-12-17T04:39:34.046Z,51.46
2022-12-17T04:42:16.799Z,51.57
2022-12-17T04:44:59.683Z,51.96
2022-12-17T04:47:42.539Z,52.18
2022-12-17T04:50:25.400Z,52.12
2022-12-17T04:53:15.927Z,52.04
2022-12-17T04:56:01.604Z,52.24
2022-12-17T04:58:44.370Z,52.91
2022-12-17T05:01:27.128Z,53.07
2022-12-17T05:04:10.002Z,52.65
2022-12-17T05:06:52.723Z,53.14
2022-12-17T05:09:35.495Z,52.93
2022-12-17T05:12:21.025Z,53.44
2022-12-17T05:15:03.782Z,53.66
2022-12-17T05:17:46.798Z,53.53
2022-12-17T05:20:29.652Z,53.69
2022-12-17T05:23:20.077Z,53.91
2022-12-17T05:26:03.213Z,53.84
2022-12-17T05:28:48.642Z,53.81
2022-12-17T05:31:31.507Z,54.05
2022-12-17T05:34:14.295Z,54.33
2022-12-17T05:36:57.036Z,54.24
2022-12-17T05:39:46.493Z,54.37
2022-12-17T05:42:29.303Z,54.61
2022-12-17T05:45:14.716Z,54.83
2022-12-17T05:47:57.946Z,55.24
2022-12-17T05:50:40.840Z,55.45
2022-12-17T05:53:25.048Z,55.50
2022-12-17T05:56:08.703Z,55.78
2022-12-17T05:58:51.576Z,55.85
2022-12-17T06:01:37.072Z,56.13
2022-12-17T06:04:19.868Z,56.45
2022-12-17T06:07:04.155Z,56.32
2022-12-17T06:09:46.944Z,56.81
2022-12-17T06:12:29.658Z,57.76
2022-12-17T06:15:12.488Z,58.08
2022-12-17T06:17:57.831Z,58.47
2022-12-17T06:20:40.664Z,58.39
2022-12-17T06:23:26.179Z,58.76
2022-12-17T06:26:09.479Z,59.24
2022-12-17T06:28:52.204Z,59.78
2022-12-17T06:31:34.990Z,60.68
2022-12-17T06:34:20.558Z,60.74
2022-12-17T06:37:03.430Z,61.63
2022-12-17T06:39:46.244Z,61.55
2022-12-17T06:42:28.974Z,61.64
2022-12-17T06:45:11.811Z,63.06
2022-12-17T06:47:54.610Z,62.95
2022-12-17T06:50:40.095Z,63.49
2022-12-17T06:53:23.384Z,63.76
2022-12-17T06:56:06.686Z,63.64
2022-12-17T06:58:49.701Z,64.25
2022-12-17T07:01:32.649Z,64.32
2022-12-17T07:04:15.524Z,64.76
2022-12-17T07:07:00.979Z,65.54
2022-12-17T07:09:43.840Z,65.42
2022-12-17T07:12:26.786Z,65.04
2022-12-17T07:15:09.727Z,65.53
2022-12-17T07:17:52.583Z,65.58
2022-12-17T07:20:35.424Z,65.29
2022-12-17T07:23:20.901Z,65.73
2022-12-17T07:26:03.740Z,65.62
2022-12-17T07:28:46.611Z,65.22
2022-12-17T07:31:29.462Z,65.09
2022-12-17T07:34:12.156Z,65.33
2022-12-17T07:36:54.940Z,65.14
2022-12-17T07:39:40.300Z,64.93
2022-12-17T07:42:23.059Z,64.71
2022-12-17T07:45:05.852Z,64.45
2022-12-17T07:47:48.799Z,64.44
2022-12-17T07:50:32.000Z,64.21
2022-12-17T07:53:15.640Z,63.95
2022-12-17T07:56:01.077Z,63.75
2022-12-17T07:58:43.951Z,63.40
2022-12-17T08:01:27.068Z,63.37
2022-12-17T08:04:10.241Z,63.30
2022-12-17T08:06:59.769Z,63.18
2022-12-17T08:09:44.586Z,63.07
2022-12-17T08:12:30.063Z,62.81
2022-12-17T08:15:12.879Z,62.88
2022-12-17T08:17:55.690Z,62.91
2022-12-17T08:20:40.251Z,62.57
2022-12-17T08:23:22.994Z,62.22
2022-12-17T08:26:05.839Z,61.51
2022-12-17T08:28:51.742Z,61.44
2022-12-17T08:31:35.650Z,61.19
2022-12-17T08:34:18.515Z,60.97
2022-12-17T08:37:01.410Z,61.07
2022-12-17T08:39:44.354Z,61.24
2022-12-17T08:42:27.289Z,61.01
2022-12-17T08:45:12.635Z,60.79
2022-12-17T08:47:59.238Z,60.59
2022-12-17T08:50:46.483Z,60.23
2022-12-17T08:53:35.083Z,60.50
2022-12-17T08:56:24.396Z,60.48
2022-12-17T08:59:09.290Z,60.67
2022-12-17T09:01:54.939Z,60.23
2022-12-17T09:04:37.394Z,60.17
2022-12-17T09:07:20.176Z,60.02
2022-12-17T09:10:02.874Z,59.70
2022-12-17T09:12:45.966Z,59.44
2022-12-17T09:15:28.907Z,55.73
2022-12-17T09:18:14.360Z,55.64
2022-12-17T09:20:57.107Z,53.61
2022-12-17T09:23:39.894Z,54.20
2022-12-17T09:26:22.872Z,54.08
2022-12-17T09:29:05.816Z,54.86
2022-12-17T09:31:49.139Z,54.98
2022-12-17T09:34:35.330Z,54.48
2022-12-17T09:37:18.762Z,53.93
2022-12-17T09:40:01.567Z,53.75
2022-12-17T09:42:59.539Z,53.13
2022-12-17T09:45:48.266Z,53.87
2022-12-17T09:48:38.742Z,54.06
2022-12-17T09:51:35.605Z,54.14
2022-12-17T09:54:19.048Z,54.89
2022-12-17T09:57:02.943Z,54.67
2022-12-17T09:59:49.815Z,54.78
2022-12-17T10:02:34.970Z,54.95
2022-12-17T10:05:27.085Z,55.54
2022-12-17T10:08:14.213Z,55.68
2022-12-17T10:11:01.299Z,55.92
2022-12-17T10:13:44.149Z,56.08
2022-12-17T10:16:43.453Z,56.37
2022-12-17T10:19:30.813Z,56.77
2022-12-17T10:22:23.006Z,56.63
2022-12-17T10:25:11.876Z,56.86
2022-12-17T10:27:57.389Z,56.72
2022-12-17T10:30:41.164Z,56.36
2022-12-17T10:33:33.112Z,56.22
2022-12-17T10:36:16.554Z,55.85
2022-12-17T10:39:00.320Z,55.89
2022-12-17T10:41:50.811Z,55.96
2022-12-17T10:44:39.379Z,56.61
2022-12-17T10:47:28.096Z,56.20
2022-12-17T10:50:15.143Z,54.15
2022-12-17T10:53:00.678Z,54.21
2022-12-17T10:55:45.775Z,53.59
2022-12-17T10:58:35.063Z,53.09
2022-12-17T11:01:19.683Z,52.78
2022-12-17T11:04:06.455Z,52.12
2022-12-17T11:06:52.422Z,51.48
2022-12-17T11:09:50.305Z,49.29
2022-12-17T11:12:38.133Z,51.04
2022-12-17T11:15:34.170Z,50.44
2022-12-17T11:18:18.426Z,51.24
2022-12-17T11:21:07.662Z,51.26
2022-12-17T11:23:56.921Z,51.47
2022-12-17T11:26:42.593Z,51.89
2022-12-17T11:29:27.370Z,50.56
2022-12-17T11:32:27.955Z,51.55
2022-12-17T11:35:20.376Z,51.39
2022-12-17T11:38:13.280Z,51.04
2022-12-17T11:40:58.044Z,51.00
2022-12-17T11:43:49.318Z,50.67
2022-12-17T11:46:43.233Z,50.56
2022-12-17T11:49:38.729Z,50.37
2022-12-17T11:52:27.764Z,50.47
2022-12-17T11:55:16.246Z,50.18
2022-12-17T11:58:06.761Z,50.65
2022-12-17T12:00:57.211Z,50.72
2022-12-17T12:03:50.016Z,50.67
2022-12-17T12:06:42.784Z,50.10
2022-12-17T12:09:32.604Z,50.59
2022-12-17T12:12:24.038Z,50.68
2022-12-17T12:15:13.195Z,50.30
2022-12-17T12:18:03.362Z,50.39
2022-12-17T12:21:02.638Z,50.04
2022-12-17T12:24:01.396Z,50.63
2022-12-17T12:26:51.604Z,50.87
2022-12-17T12:29:45.604Z,50.51
2022-12-17T12:32:37.289Z,50.92
2022-12-17T12:35:24.262Z,51.15
2022-12-17T12:38:07.175Z,51.22
2022-12-17T12:40:59.954Z,53.55
2022-12-17T12:43:46.575Z,55.31
2022-12-17T12:46:35.086Z,55.07
2022-12-17T12:49:34.697Z,56.07
2022-12-17T12:52:18.144Z,57.82
2022-12-17T12:55:09.044Z,59.71
2022-12-17T12:57:57.661Z,60.58
2022-12-17T13:00:45.038Z,61.15
2022-12-17T13:03:43.477Z,62.19
2022-12-17T13:06:14.779Z,62.50
2022-12-17T13:08:45.709Z,62.75
2022-12-17T13:11:32.339Z,63.59
2022-12-17T13:14:14.816Z,63.53
2022-12-17T13:16:55.196Z,64.02
2022-12-17T13:19:39.729Z,64.25
2022-12-17T13:22:28.612Z,64.91
2022-12-17T13:25:12.569Z,65.25
2022-12-17T13:27:43.966Z,65.47
2022-12-17T13:30:35.843Z,66.28
2022-12-17T13:33:25.752Z,66.59
2022-12-17T13:36:06.757Z,66.70
2022-12-17T13:38:48.039Z,66.95
2022-12-17T13:41:21.298Z,66.78
2022-12-17T13:43:54.548Z,67.12
2022-12-17T13:46:29.580Z,67.21
2022-12-17T13:49:02.080Z,67.20
2022-12-17T13:51:34.015Z,67.73
2022-12-17T13:54:07.101Z,68.01
2022-12-17T13:56:40.153Z,68.30
2022-12-17T13:59:10.749Z,68.01
2022-12-17T14:01:52.173Z,68.55
2022-12-17T14:04:25.862Z,68.50
2022-12-17T14:06:59.295Z,69.01
2022-12-17T14:09:35.438Z,68.80
2022-12-17T14:12:20.603Z,69.05
2022-12-17T14:14:55.172Z,69.28
2022-12-17T14:17:30.675Z,69.58
2022-12-17T14:20:05.793Z,69.81
2022-12-17T14:22:39.635Z,69.75
2022-12-17T14:25:19.086Z,70.21
2022-12-17T14:27:56.500Z,70.27
2022-12-17T14:30:34.029Z,70.58
2022-12-17T14:33:08.791Z,70.29
2022-12-17T14:35:43.072Z,70.62
2022-12-17T14:38:37.367Z,70.56
2022-12-17T14:41:26.685Z,70.96
2022-12-17T14:44:00.367Z,70.56
2022-12-17T14:46:31.795Z,70.82
2022-12-17T14:49:07.214Z,71.00
2022-12-17T14:51:38.910Z,71.76
2022-12-17T14:54:22.341Z,71.31
2022-12-17T14:56:53.322Z,71.39
2022-12-17T14:59:37.397Z,71.73
2022-12-17T15:02:24.335Z,71.76
2022-12-17T15:05:00.855Z,71.36
2022-12-17T15:07:33.354Z,71.36
2022-12-17T15:10:03.979Z,71.56
2022-12-17T15:12:34.690Z,71.91
2022-12-17T15:15:05.379Z,72.13
2022-12-17T15:17:35.944Z,72.45
2022-12-17T15:20:12.988Z,72.63
2022-12-17T15:22:43.634Z,72.46
2022-12-17T15:25:16.031Z,72.73
2022-12-17T15:27:46.533Z,73.11
2022-12-17T15:30:18.587Z,73.03
2022-12-17T15:32:49.529Z,73.69
2022-12-17T15:35:23.103Z,74.02
2022-12-17T15:37:53.668Z,74.36
2022-12-17T15:40:25.229Z,74.25
2022-12-17T15:43:08.086Z,74.43
2022-12-17T15:45:38.664Z,74.20
2022-12-17T15:48:09.702Z,74.39
2022-12-17T15:50:43.500Z,74.44
2022-12-17T15:53:14.183Z,74.38
2022-12-17T15:55:45.052Z,74.33
2022-12-17T15:58:16.481Z,74.78
2022-12-17T16:00:47.060Z,74.96
2022-12-17T16:03:17.660Z,74.76
2022-12-17T16:05:50.997Z,74.87
2022-12-17T16:08:21.476Z,75.18
2022-12-17T16:10:52.380Z,75.14
2022-12-17T16:13:22.869Z,75.42
2022-12-17T16:16:03.898Z,75.33
2022-12-17T16:18:35.681Z,75.36
2022-12-17T16:21:11.009Z,75.45
2022-12-17T16:23:42.035Z,75.35
2022-12-17T16:26:14.368Z,75.39
2022-12-17T16:28:44.901Z,75.00
2022-12-17T16:31:17.556Z,74.84
2022-12-17T16:33:48.773Z,74.91
2022-12-17T16:36:23.749Z,74.91
2022-12-17T16:38:56.036Z,74.86
2022-12-17T16:41:26.726Z,74.75
2022-12-17T16:43:57.264Z,74.91
2022-12-17T16:46:31.175Z,74.51
2022-12-17T16:49:06.967Z,74.32
2022-12-17T16:51:40.383Z,74.02
2022-12-17T16:54:12.091Z,74.03
2022-12-17T16:56:42.842Z,73.70
2022-12-17T16:59:14.761Z,73.83
2022-12-17T17:01:47.769Z,73.31
2022-12-17T17:04:20.211Z,73.31
2022-12-17T17:06:55.419Z,73.06
2022-12-17T17:09:27.573Z,73.19
2022-12-17T17:11:59.083Z,73.24
2022-12-17T17:14:29.872Z,73.26
2022-12-17T17:17:00.558Z,73.14
2022-12-17T17:19:31.116Z,73.21
2022-12-17T17:22:04.317Z,72.96
2022-12-17T17:24:34.900Z,73.16
2022-12-17T17:27:05.567Z,73.28
2022-12-17T17:29:36.150Z,72.98
2022-12-17T17:32:11.420Z,72.85
2022-12-17T17:34:43.638Z,72.92
2022-12-17T17:37:17.256Z,72.65
2022-12-17T17:39:48.819Z,72.45
2022-12-17T17:42:19.608Z,72.40
2022-12-17T17:44:50.272Z,72.18
2022-12-17T17:47:20.912Z,72.12
2022-12-17T17:49:51.732Z,72.13
2022-12-17T17:52:25.307Z,72.05
2022-12-17T17:54:56.396Z,72.37
2022-12-17T17:57:26.972Z,72.38
2022-12-17T17:59:57.574Z,72.43
2022-12-17T18:02:28.538Z,72.59
2022-12-17T18:04:59.178Z,72.50
2022-12-17T18:07:32.486Z,72.29
2022-12-17T18:10:03.001Z,72.29
2022-12-17T18:12:46.408Z,72.42
2022-12-17T18:15:18.445Z,72.41
2022-12-17T18:17:54.500Z,72.75
2022-12-17T18:20:25.130Z,72.63
2022-12-17T18:22:58.271Z,72.89
2022-12-17T18:25:31.571Z,73.09
2022-12-17T18:28:06.430Z,73.28
2022-12-17T18:30:36.994Z,73.34
2022-12-17T18:33:08.115Z,73.40
2022-12-17T18:35:38.786Z,73.39
2022-12-17T18:38:12.467Z,73.35
2022-12-17T18:40:43.226Z,73.03
2022-12-17T18:43:25.946Z,73.11
2022-12-17T18:45:56.441Z,73.55
2022-12-17T18:48:28.365Z,73.59
2022-12-17T18:51:07.865Z,73.66
2022-12-17T18:53:41.169Z,73.70
2022-12-17T18:56:16.573Z,69.80
2022-12-17T18:58:55.595Z,67.02
2022-12-17T19:01:28.428Z,69.54
2022-12-17T19:04:00.103Z,72.89
2022-12-17T19:06:31.229Z,74.50
2022-12-17T19:09:04.852Z,76.73
2022-12-17T19:11:41.946Z,78.89
2022-12-17T19:14:14.039Z,80.72
2022-12-17T19:16:44.821Z,82.19
2022-12-17T19:19:16.308Z,82.48
2022-12-17T19:21:46.886Z,85.31
2022-12-17T19:24:22.323Z,87.56
2022-12-17T19:26:53.654Z,89.31
2022-12-17T19:29:24.660Z,89.38
2022-12-17T19:31:55.264Z,88.92
2022-12-17T19:34:26.080Z,87.91
2022-12-17T19:36:56.633Z,86.58
2022-12-17T19:39:29.847Z,85.46
2022-12-17T19:42:00.360Z,84.06
2022-12-17T19:44:30.885Z,85.29
2022-12-17T19:47:01.319Z,85.47
2022-12-17T19:49:32.980Z,88.22
2022-12-17T19:52:03.463Z,91.93
2022-12-17T19:54:36.732Z,96.32
2022-12-17T19:57:07.421Z,94.94
2022-12-17T19:59:38.115Z,93.97
2022-12-17T20:02:08.885Z,92.97
2022-12-17T20:04:42.128Z,91.92
2022-12-17T20:07:12.782Z,90.82
2022-12-17T20:09:47.230Z,89.96
2022-12-17T20:12:17.776Z,89.39
2022-12-17T20:14:48.581Z,88.50
2022-12-17T20:17:20.606Z,87.89
2022-12-17T20:19:53.594Z,87.11
2022-12-17T20:22:25.692Z,86.28
2022-12-17T20:24:59.963Z,85.38
2022-12-17T20:27:30.546Z,84.92
2022-12-17T20:30:01.140Z,84.24
2022-12-17T20:32:37.630Z,83.61
2022-12-17T20:35:09.316Z,82.78
2022-12-17T20:37:39.812Z,82.25
2022-12-17T20:40:14.042Z,81.95
2022-12-17T20:42:44.932Z,81.92
2022-12-17T20:45:15.583Z,81.19
2022-12-17T20:47:46.038Z,80.73
2022-12-17T20:50:16.612Z,80.00
2022-12-17T20:52:46.992Z,79.76
2022-12-17T20:55:20.287Z,79.39
2022-12-17T20:57:50.723Z,79.03
2022-12-17T21:00:21.623Z,78.68
2022-12-17T21:02:52.408Z,78.54
2022-12-17T21:05:23.257Z,78.42
2022-12-17T21:07:54.007Z,78.43
2022-12-17T21:10:27.187Z,78.11
2022-12-17T21:13:10.027Z,80.77
2022-12-17T21:15:40.879Z,79.62
2022-12-17T21:18:11.478Z,79.33
2022-12-17T21:20:42.004Z,79.20
2022-12-17T21:23:13.083Z,78.69
2022-12-17T21:25:46.211Z,78.55
2022-12-17T21:28:24.336Z,77.94
2022-12-17T21:30:54.917Z,78.41
2022-12-17T21:33:26.111Z,78.21
2022-12-17T21:36:01.719Z,78.22
2022-12-17T21:38:38.690Z,78.08
2022-12-17T21:41:16.018Z,78.20
2022-12-17T21:43:46.795Z,78.32
2022-12-17T21:46:17.832Z,78.33
2022-12-17T21:48:48.763Z,78.16
2022-12-17T21:51:19.657Z,78.19
2022-12-17T21:53:51.058Z,77.99
2022-12-17T21:56:24.769Z,77.82
2022-12-17T21:58:59.841Z,77.95
2022-12-17T22:01:32.843Z,77.96
2022-12-17T22:04:05.857Z,78.01
2022-12-17T22:06:45.483Z,77.84
2022-12-17T22:09:34.964Z,78.00
2022-12-17T22:12:27.366Z,77.90
2022-12-17T22:14:57.907Z,78.15
2022-12-17T22:17:29.074Z,77.85
2022-12-17T22:19:59.515Z,77.96
2022-12-17T22:22:30.063Z,77.85
2022-12-17T22:25:06.130Z,77.67
2022-12-17T22:27:41.290Z,77.48
2022-12-17T22:30:29.850Z,77.19
2022-12-17T22:33:17.438Z,76.98
2022-12-17T22:37:18.862Z,76.90
2022-12-17T22:42:19.624Z,76.40
2022-12-17T22:44:31.158Z,76.32
2022-12-17T22:44:53.223Z,76.14
2022-12-17T22:47:24.782Z,75.80
2022-12-17T22:49:55.279Z,75.67
2022-12-17T22:52:26.643Z,75.41
2022-12-17T22:54:57.491Z,75.37
2022-12-17T22:57:35.847Z,74.74
2022-12-17T23:00:16.815Z,74.62
2022-12-17T23:02:47.443Z,74.63
2022-12-17T23:05:18.088Z,74.48
2022-12-17T23:07:48.711Z,74.26
2022-12-17T23:10:19.921Z,74.26
2022-12-17T23:12:54.490Z,74.22
2022-12-17T23:15:31.220Z,73.71
2022-12-17T23:18:04.493Z,73.73
2022-12-17T23:20:37.123Z,73.34
2022-12-17T23:23:07.744Z,73.23
2022-12-17T23:25:39.197Z,73.18
2022-12-17T23:28:09.758Z,73.05
2022-12-17T23:30:45.058Z,73.06
2022-12-17T23:33:15.661Z,72.38
2022-12-17T23:35:46.152Z,72.20
2022-12-17T23:38:16.751Z,72.37
2022-12-17T23:40:47.320Z,72.15
2022-12-17T23:43:18.078Z,72.01
2022-12-17T23:45:51.174Z,72.04
2022-12-17T23:48:21.866Z,71.98
2022-12-17T23:50:52.393Z,72.08
2022-12-17T23:53:23.197Z,72.13
2022-12-17T23:55:53.670Z,72.24
2022-12-17T23:58:24.914Z,71.99
